createdAt,value
2018-06-30T00:00:28.721Z,101122.16
2018-06-30T00:02:58.307Z,101119.06
2018-06-30T00:05:29.726Z,101118.16
2018-06-30T00:08:00.039Z,101122.97
2018-06-30T00:10:32.434Z,101120.80
2018-06-30T00:13:03.197Z,101124.27
2018-06-30T00:15:32.470Z,101124.69
2018-06-30T00:18:04.625Z,101125.12
2018-06-30T00:20:34.169Z,101126.41
2018-06-30T00:23:04.072Z,101128.60
2018-06-30T00:25:34.730Z,101134.71
2018-06-30T00:28:06.205Z,101134.69
2018-06-30T00:30:37.617Z,101138.60
2018-06-30T00:33:06.778Z,101133.80
2018-06-30T00:35:38.834Z,101134.64
2018-06-30T00:38:08.497Z,101130.67
2018-06-30T00:40:38.340Z,101137.20
2018-06-30T00:43:10.197Z,101135.45
2018-06-30T00:45:42.184Z,101142.44
2018-06-30T00:48:13.529Z,101145.06
2018-06-30T00:50:43.165Z,101141.11
2018-06-30T00:53:14.832Z,101152.89
2018-06-30T00:55:45.777Z,101147.17
2018-06-30T00:58:17.354Z,101151.55
2018-06-30T01:00:46.785Z,101149.77
2018-06-30T01:03:16.717Z,101150.19
2018-06-30T01:05:48.785Z,101149.30
2018-06-30T01:08:18.095Z,101153.20
2018-06-30T01:10:49.288Z,101148.36
2018-06-30T01:13:19.393Z,101157.55
2018-06-30T01:15:50.477Z,101161.48
2018-06-30T01:18:20.493Z,101163.20
2018-06-30T01:20:52.139Z,101157.47
2018-06-30T01:23:24.340Z,101164.89
2018-06-30T01:25:53.547Z,101166.63
2018-06-30T01:28:24.894Z,101177.54
2018-06-30T01:30:55.224Z,101176.23
2018-06-30T01:33:27.823Z,101173.97
2018-06-30T01:35:57.745Z,101178.31
2018-06-30T01:38:26.924Z,101178.70
2018-06-30T01:40:56.964Z,101182.16
2018-06-30T01:43:27.019Z,101175.95
2018-06-30T01:45:56.260Z,101189.90
2018-06-30T01:48:28.105Z,101173.26
2018-06-30T01:50:58.492Z,101181.09
2018-06-30T01:53:28.588Z,101181.53
2018-06-30T01:55:58.493Z,101181.92
2018-06-30T01:58:28.047Z,101193.24
2018-06-30T02:01:00.198Z,101189.70
2018-06-30T02:03:29.772Z,101185.28
2018-06-30T02:06:01.984Z,101196.58
2018-06-30T02:08:32.045Z,101189.13
2018-06-30T02:11:03.467Z,101193.89
2018-06-30T02:13:33.622Z,101194.26
2018-06-30T02:16:04.818Z,101192.03
2018-06-30T02:18:36.473Z,101198.56
2018-06-30T02:21:06.216Z,101197.64
2018-06-30T02:23:35.881Z,101198.50
2018-06-30T02:26:07.146Z,101204.16
2018-06-30T02:28:36.296Z,101210.27
2018-06-30T02:31:07.322Z,101214.19
2018-06-30T02:33:39.253Z,101212.86
2018-06-30T02:36:09.176Z,101222.88
2018-06-30T02:38:40.715Z,101216.78
2018-06-30T02:41:11.761Z,101219.38
2018-06-30T02:43:40.940Z,101226.86
2018-06-30T02:46:12.161Z,101225.55
2018-06-30T02:48:43.335Z,101231.62
2018-06-30T02:51:15.033Z,101234.19
2018-06-30T02:53:47.126Z,101234.20
2018-06-30T02:56:16.426Z,101231.97
2018-06-30T02:58:47.429Z,101233.70
2018-06-30T03:01:18.926Z,101234.98
2018-06-30T03:03:50.596Z,101241.08
2018-06-30T03:06:20.497Z,101234.48
2018-06-30T03:08:51.675Z,101238.82
2018-06-30T03:11:21.439Z,101244.05
2018-06-30T03:13:50.682Z,101242.73
2018-06-30T03:16:23.492Z,101246.20
2018-06-30T03:18:54.130Z,101252.31
2018-06-30T03:21:26.610Z,101254.05
2018-06-30T03:23:57.840Z,101261.50
2018-06-30T03:26:27.009Z,101261.50
2018-06-30T03:28:58.513Z,101255.38
2018-06-30T03:31:28.208Z,101259.77
2018-06-30T03:33:58.777Z,101257.58
2018-06-30T03:36:30.499Z,101256.80
2018-06-30T03:39:00.950Z,101258.15
2018-06-30T03:41:32.534Z,101264.74
2018-06-30T03:44:01.527Z,101263.50
2018-06-30T03:46:32.693Z,101261.85
2018-06-30T03:49:03.774Z,101263.27
2018-06-30T03:51:35.197Z,101263.31
2018-06-30T03:54:04.901Z,101258.86
2018-06-30T03:56:36.644Z,101262.17
2018-06-30T03:59:08.576Z,101257.28
2018-06-30T04:01:38.375Z,101261.41
2018-06-30T04:04:08.689Z,101253.03
2018-06-30T04:06:39.238Z,101262.83
2018-06-30T04:09:12.175Z,101260.78
2018-06-30T04:11:43.467Z,101263.89
2018-06-30T04:14:12.780Z,101272.42
2018-06-30T04:16:43.651Z,101268.83
2018-06-30T04:19:16.053Z,101266.89
2018-06-30T04:21:46.991Z,101264.16
2018-06-30T04:24:16.860Z,101275.32
2018-06-30T04:26:46.472Z,101264.15
2018-06-30T04:29:17.165Z,101270.95
2018-06-30T04:31:47.030Z,101260.34
2018-06-30T04:34:18.263Z,101273.28
2018-06-30T04:36:49.457Z,101272.84
2018-06-30T04:39:20.990Z,101279.31
2018-06-30T04:41:52.626Z,101273.80
2018-06-30T04:44:21.812Z,101276.03
2018-06-30T04:46:52.680Z,101277.92
2018-06-30T04:49:23.189Z,101281.37
2018-06-30T04:51:54.605Z,101282.65
2018-06-30T04:54:25.473Z,101286.27
2018-06-30T04:56:55.090Z,101280.80
2018-06-30T04:59:31.964Z,101283.47
2018-06-30T05:02:01.196Z,101285.45
2018-06-30T05:04:30.926Z,101289.77
2018-06-30T05:07:00.707Z,101287.33
2018-06-30T05:09:32.691Z,101285.51
2018-06-30T05:12:03.038Z,101288.80
2018-06-30T05:14:33.906Z,101291.20
2018-06-30T05:17:04.915Z,101290.47
2018-06-30T05:19:36.099Z,101292.61
2018-06-30T05:22:08.115Z,101293.70
2018-06-30T05:24:37.459Z,101290.84
2018-06-30T05:27:08.734Z,101292.03
2018-06-30T05:29:40.363Z,101296.20
2018-06-30T05:32:12.043Z,101291.45
2018-06-30T05:34:42.802Z,101292.39
2018-06-30T05:37:12.032Z,101301.45
2018-06-30T05:39:44.031Z,101295.73
2018-06-30T05:42:14.789Z,101306.19
2018-06-30T05:44:45.684Z,101300.12
2018-06-30T05:47:17.260Z,101308.07
2018-06-30T05:49:47.897Z,101304.23
2018-06-30T05:52:19.867Z,101314.25
2018-06-30T05:54:49.518Z,101311.22
2018-06-30T05:57:20.452Z,101316.15
2018-06-30T05:59:50.346Z,101314.09
2018-06-30T06:02:21.869Z,101322.16
2018-06-30T06:04:52.926Z,101314.81
2018-06-30T06:07:22.134Z,101313.41
2018-06-30T06:09:54.030Z,101336.17
2018-06-30T06:12:24.106Z,101323.92
2018-06-30T06:14:56.351Z,101319.85
2018-06-30T06:17:27.118Z,101329.59
2018-06-30T06:19:56.585Z,101323.52
2018-06-30T06:22:27.994Z,101321.67
2018-06-30T06:24:57.296Z,101319.28
2018-06-30T06:27:27.833Z,101319.32
2018-06-30T06:29:59.013Z,101314.56
2018-06-30T06:32:30.613Z,101319.21
2018-06-30T06:35:02.254Z,101318.74
2018-06-30T06:37:31.525Z,101318.06
2018-06-30T06:40:02.655Z,101320.20
2018-06-30T06:42:32.911Z,101322.63
2018-06-30T06:45:03.918Z,101322.22
2018-06-30T06:47:34.265Z,101318.39
2018-06-30T06:50:04.563Z,101319.38
2018-06-30T06:52:36.907Z,101317.12
2018-06-30T06:55:06.124Z,101326.09
2018-06-30T06:57:35.484Z,101321.45
2018-06-30T07:00:05.627Z,101321.27
2018-06-30T07:02:36.698Z,101324.02
2018-06-30T07:05:06.055Z,101311.89
2018-06-30T07:07:35.285Z,101316.27
2018-06-30T07:10:06.520Z,101328.13
2018-06-30T07:12:37.655Z,101329.34
2018-06-30T07:15:08.766Z,101329.28
2018-06-30T07:17:39.205Z,101326.95
2018-06-30T07:20:09.555Z,101313.95
2018-06-30T07:22:38.706Z,101323.12
2018-06-30T07:25:08.105Z,101329.88
2018-06-30T07:27:38.175Z,101331.70
2018-06-30T07:30:09.317Z,101326.11
2018-06-30T07:32:40.799Z,101327.12
2018-06-30T07:35:10.787Z,101325.83
2018-06-30T07:37:40.016Z,101321.19
2018-06-30T07:40:10.452Z,101324.73
2018-06-30T07:42:39.680Z,101320.14
2018-06-30T07:45:11.466Z,101320.97
2018-06-30T07:47:41.914Z,101330.20
2018-06-30T07:50:13.811Z,101327.83
2018-06-30T07:52:45.037Z,101311.05
2018-06-30T07:55:14.198Z,101332.57
2018-06-30T07:57:54.956Z,101333.06
2018-06-30T08:00:24.086Z,101327.76
2018-06-30T08:02:53.243Z,101329.94
2018-06-30T08:05:22.436Z,101327.06
2018-06-30T08:07:51.622Z,101318.75
2018-06-30T08:10:20.803Z,101314.51
2018-06-30T08:12:50.018Z,101325.63
2018-06-30T08:15:19.158Z,101324.09
2018-06-30T08:17:48.299Z,101316.23
2018-06-30T08:20:17.461Z,101324.89
2018-06-30T08:22:46.669Z,101324.48
2018-06-30T08:25:15.928Z,101330.70
2018-06-30T08:27:45.313Z,101329.78
2018-06-30T08:30:14.536Z,101327.52
2018-06-30T08:32:43.671Z,101315.55
2018-06-30T08:35:12.823Z,101332.47
2018-06-30T08:37:41.952Z,101330.26
2018-06-30T08:40:11.224Z,101317.91
2018-06-30T08:42:40.391Z,101328.90
2018-06-30T08:45:09.540Z,101332.89
2018-06-30T08:47:38.707Z,101333.69
2018-06-30T08:50:07.908Z,101334.09
2018-06-30T08:52:37.085Z,101327.92
2018-06-30T08:55:06.300Z,101329.38
2018-06-30T08:57:35.491Z,101324.41
2018-06-30T09:00:06.110Z,101321.41
2018-06-30T09:02:35.414Z,101330.52
2018-06-30T09:05:04.852Z,101325.80
2018-06-30T09:07:34.181Z,101327.13
2018-06-30T09:10:03.450Z,101328.70
2018-06-30T09:12:32.603Z,101334.48
2018-06-30T09:15:01.860Z,101330.16
2018-06-30T09:17:31.077Z,101324.14
2018-06-30T09:20:00.283Z,101328.73
2018-06-30T09:22:29.434Z,101328.80
2018-06-30T09:24:58.624Z,101351.97
2018-06-30T09:27:27.891Z,101345.13
2018-06-30T09:29:57.193Z,101333.13
2018-06-30T09:32:26.330Z,101330.42
2018-06-30T09:34:55.661Z,101329.52
2018-06-30T09:37:24.998Z,101331.00
2018-06-30T09:39:55.743Z,101321.55
2018-06-30T09:42:24.989Z,101320.40
2018-06-30T09:44:54.250Z,101315.59
2018-06-30T09:47:23.522Z,101325.98
2018-06-30T09:49:59.486Z,101324.93
2018-06-30T09:52:28.819Z,101328.45
2018-06-30T09:54:58.072Z,101335.75
2018-06-30T09:57:27.402Z,101317.51
2018-06-30T09:59:56.879Z,101330.98
2018-06-30T10:02:26.574Z,101329.34
2018-06-30T10:04:55.854Z,101322.52
2018-06-30T10:07:25.123Z,101313.92
2018-06-30T10:09:54.293Z,101319.44
2018-06-30T10:12:23.478Z,101319.81
2018-06-30T10:14:52.713Z,101321.63
2018-06-30T10:17:21.869Z,101310.68
2018-06-30T10:19:51.014Z,101313.00
2018-06-30T10:22:20.178Z,101311.66
2018-06-30T10:24:49.350Z,101312.48
2018-06-30T10:27:18.481Z,101305.33
2018-06-30T10:29:53.495Z,101294.13
2018-06-30T10:32:22.624Z,101288.67
2018-06-30T10:34:51.737Z,101295.83
2018-06-30T10:37:20.938Z,101300.86
2018-06-30T10:39:50.063Z,101294.81
2018-06-30T10:42:19.243Z,101285.35
2018-06-30T10:44:48.416Z,101292.17
2018-06-30T10:47:17.533Z,101301.34
2018-06-30T10:49:46.627Z,101293.76
2018-06-30T10:52:15.780Z,101299.45
2018-06-30T10:54:44.909Z,101291.82
2018-06-30T10:57:14.047Z,101279.96
2018-06-30T10:59:43.184Z,101286.28
2018-06-30T11:02:12.322Z,101284.59
2018-06-30T11:04:41.461Z,101282.34
2018-06-30T11:07:10.627Z,101272.27
2018-06-30T11:09:39.794Z,101283.47
2018-06-30T11:12:08.975Z,101277.09
2018-06-30T11:14:38.181Z,101275.53
2018-06-30T11:17:07.356Z,101269.95
2018-06-30T11:19:36.507Z,101259.69
2018-06-30T11:22:05.709Z,101261.41
2018-06-30T11:24:34.815Z,101281.42
2018-06-30T11:27:03.936Z,101279.32
2018-06-30T11:29:33.173Z,101269.26
2018-06-30T11:32:02.271Z,101277.05
2018-06-30T11:34:31.434Z,101273.09
2018-06-30T11:37:00.591Z,101264.34
2018-06-30T11:39:29.745Z,101268.33
2018-06-30T11:41:58.905Z,101264.95
2018-06-30T11:44:28.089Z,101260.32
2018-06-30T11:46:57.327Z,101268.84
2018-06-30T11:49:28.067Z,101266.69
2018-06-30T11:52:00.977Z,101266.39
2018-06-30T11:54:30.558Z,101269.87
2018-06-30T11:57:03.749Z,101266.05
2018-06-30T11:59:32.995Z,101261.73
2018-06-30T12:02:04.749Z,101259.06
2018-06-30T12:04:36.072Z,101259.21
2018-06-30T12:07:10.977Z,101252.66
2018-06-30T12:09:40.158Z,101272.11
2018-06-30T12:12:09.312Z,101255.08
2018-06-30T12:14:38.466Z,101249.08
2018-06-30T12:17:07.684Z,101256.09
2018-06-30T12:19:36.923Z,101259.52
2018-06-30T12:22:06.082Z,101260.28
2018-06-30T12:24:35.678Z,101262.22
2018-06-30T12:27:05.081Z,101262.82
2018-06-30T12:29:34.220Z,101266.63
2018-06-30T12:32:03.570Z,101265.80
2018-06-30T12:34:32.592Z,101268.55
2018-06-30T12:37:01.766Z,101262.77
2018-06-30T12:39:30.921Z,101255.89
2018-06-30T12:42:00.329Z,101252.19
2018-06-30T12:44:29.481Z,101254.06
2018-06-30T12:46:58.634Z,101254.05
2018-06-30T12:49:27.852Z,101253.97
2018-06-30T12:51:56.977Z,101254.64
2018-06-30T12:54:26.177Z,101257.27
2018-06-30T12:56:55.240Z,101253.81
2018-06-30T12:59:24.370Z,101248.73
2018-06-30T13:01:53.517Z,101251.55
2018-06-30T13:04:22.623Z,101246.22
2018-06-30T13:06:51.901Z,101242.17
2018-06-30T13:09:21.099Z,101240.88
2018-06-30T13:11:50.254Z,101243.86
2018-06-30T13:14:19.432Z,101246.35
2018-06-30T13:16:48.593Z,101237.69
2018-06-30T13:19:17.721Z,101237.74
2018-06-30T13:21:46.849Z,101233.84
2018-06-30T13:24:15.969Z,101236.45
2018-06-30T13:26:45.081Z,101235.33
2018-06-30T13:29:14.217Z,101221.09
2018-06-30T13:31:43.536Z,101239.25
2018-06-30T13:34:13.015Z,101230.25
2018-06-30T13:36:42.118Z,101236.09
2018-06-30T13:39:13.840Z,101235.50
2018-06-30T13:41:43.135Z,101244.11
2018-06-30T13:44:12.970Z,101229.03
2018-06-30T13:46:42.119Z,101231.28
2018-06-30T13:49:11.282Z,101230.11
2018-06-30T13:51:40.446Z,101227.61
2018-06-30T13:54:09.767Z,101229.60
2018-06-30T13:56:38.853Z,101227.70
2018-06-30T13:59:08.006Z,101219.24
2018-06-30T14:01:37.136Z,101214.27
2018-06-30T14:04:06.293Z,101219.22
2018-06-30T14:06:35.408Z,101210.78
2018-06-30T14:09:08.018Z,101217.81
2018-06-30T14:11:37.434Z,101215.59
2018-06-30T14:14:06.838Z,101223.51
2018-06-30T14:16:36.099Z,101220.53
2018-06-30T14:19:05.585Z,101218.38
2018-06-30T14:21:34.669Z,101219.48
2018-06-30T14:24:03.878Z,101228.72
2018-06-30T14:26:33.026Z,101234.06
2018-06-30T14:29:02.145Z,101217.61
2018-06-30T14:31:31.261Z,101219.78
2018-06-30T14:34:00.415Z,101213.11
2018-06-30T14:36:29.522Z,101218.30
2018-06-30T14:38:58.649Z,101211.16
2018-06-30T14:41:27.784Z,101211.84
2018-06-30T14:43:56.928Z,101206.97
2018-06-30T14:46:26.115Z,101200.06
2018-06-30T14:48:55.260Z,101209.14
2018-06-30T14:51:24.414Z,101193.87
2018-06-30T14:53:53.582Z,101205.69
2018-06-30T14:56:22.598Z,101199.34
2018-06-30T14:58:51.877Z,101202.23
2018-06-30T15:01:21.014Z,101198.52
2018-06-30T15:03:50.169Z,101202.84
2018-06-30T15:06:19.386Z,101200.77
2018-06-30T15:08:48.603Z,101180.30
2018-06-30T15:11:17.922Z,101189.22
2018-06-30T15:13:47.173Z,101184.83
2018-06-30T15:16:16.462Z,101185.70
2018-06-30T15:18:45.632Z,101194.16
2018-06-30T15:21:14.792Z,101198.09
2018-06-30T15:23:43.951Z,101188.70
2018-06-30T15:26:13.227Z,101193.41
2018-06-30T15:28:42.401Z,101193.97
2018-06-30T15:31:11.617Z,101192.50
2018-06-30T15:33:40.776Z,101196.57
2018-06-30T15:36:10.054Z,101189.28
2018-06-30T15:38:39.208Z,101187.08
2018-06-30T15:41:08.588Z,101201.30
2018-06-30T15:43:37.749Z,101189.63
2018-06-30T15:46:06.886Z,101212.36
2018-06-30T15:48:36.089Z,101199.93
2018-06-30T15:51:05.301Z,101211.77
2018-06-30T15:53:34.480Z,101207.42
2018-06-30T15:56:03.980Z,101198.37
2018-06-30T15:58:33.167Z,101194.62
2018-06-30T16:01:02.343Z,101199.37
2018-06-30T16:03:31.602Z,101187.69
2018-06-30T16:06:00.797Z,101179.31
2018-06-30T16:08:29.937Z,101181.28
2018-06-30T16:10:59.124Z,101193.20
2018-06-30T16:13:28.325Z,101186.27
2018-06-30T16:15:57.561Z,101188.30
2018-06-30T16:18:26.773Z,101207.58
2018-06-30T16:20:56.146Z,101192.16
2018-06-30T16:23:25.606Z,101183.92
2018-06-30T16:25:54.777Z,101175.44
2018-06-30T16:28:23.942Z,101178.30
2018-06-30T16:30:53.534Z,101179.86
2018-06-30T16:33:22.798Z,101184.49
2018-06-30T16:35:51.947Z,101181.08
2018-06-30T16:38:21.105Z,101172.38
2018-06-30T16:40:53.337Z,101183.39
2018-06-30T16:43:22.529Z,101185.67
2018-06-30T16:45:51.695Z,101189.95
2018-06-30T16:48:20.860Z,101179.53
2018-06-30T16:50:50.031Z,101181.13
2018-06-30T16:53:19.423Z,101172.84
2018-06-30T16:55:48.694Z,101182.21
2018-06-30T16:58:17.857Z,101187.55
2018-06-30T17:00:47.037Z,101192.97
2018-06-30T17:03:16.169Z,101175.77
2018-06-30T17:05:45.319Z,101185.52
2018-06-30T17:08:14.565Z,101182.89
2018-06-30T17:10:43.711Z,101183.87
2018-06-30T17:13:12.857Z,101175.58
2018-06-30T17:15:42.141Z,101181.83
2018-06-30T17:18:11.270Z,101172.11
2018-06-30T17:20:40.508Z,101173.08
2018-06-30T17:23:09.695Z,101174.05
2018-06-30T17:25:38.861Z,101175.12
2018-06-30T17:28:08.090Z,101180.55
2018-06-30T17:30:37.281Z,101183.72
2018-06-30T17:33:06.825Z,101178.95
2018-06-30T17:35:35.911Z,101195.78
2018-06-30T17:38:05.090Z,101186.13
2018-06-30T17:40:34.253Z,101187.52
2018-06-30T17:43:03.466Z,101194.64
2018-06-30T17:45:32.752Z,101194.30
2018-06-30T17:48:08.583Z,101193.43
2018-06-30T17:50:37.748Z,101197.47
2018-06-30T17:53:06.925Z,101200.59
2018-06-30T17:55:36.046Z,101195.35
2018-06-30T17:58:05.302Z,101201.23
2018-06-30T18:00:34.407Z,101199.13
2018-06-30T18:03:03.736Z,101216.88
2018-06-30T18:05:32.911Z,101221.36
2018-06-30T18:08:02.056Z,101217.05
2018-06-30T18:10:31.712Z,101211.84
2018-06-30T18:13:00.766Z,101216.91
2018-06-30T18:15:29.959Z,101228.57
2018-06-30T18:17:59.310Z,101230.04
2018-06-30T18:20:28.532Z,101218.73
2018-06-30T18:22:57.695Z,101216.20
2018-06-30T18:25:26.853Z,101226.08
2018-06-30T18:27:56.054Z,101227.06
2018-06-30T18:30:25.211Z,101228.55
2018-06-30T18:32:54.400Z,101232.14
2018-06-30T18:35:23.926Z,101248.15
2018-06-30T18:37:53.076Z,101245.58
2018-06-30T18:40:22.275Z,101233.80
2018-06-30T18:42:51.395Z,101240.08
2018-06-30T18:45:20.547Z,101227.42
2018-06-30T18:47:49.723Z,101238.15
2018-06-30T18:50:18.904Z,101253.25
2018-06-30T18:52:48.087Z,101245.91
2018-06-30T18:55:17.434Z,101245.17
2018-06-30T18:57:46.608Z,101248.77
2018-06-30T19:00:15.752Z,101243.58
2018-06-30T19:02:44.915Z,101254.66
2018-06-30T19:05:14.185Z,101252.55
2018-06-30T19:07:43.335Z,101257.09
2018-06-30T19:10:12.573Z,101260.23
2018-06-30T19:12:41.638Z,101262.10
2018-06-30T19:15:10.758Z,101261.27
2018-06-30T19:17:39.894Z,101271.49
2018-06-30T19:20:09.062Z,101270.66
2018-06-30T19:22:38.278Z,101270.73
2018-06-30T19:25:07.629Z,101276.05
2018-06-30T19:27:36.849Z,101280.53
2018-06-30T19:30:06.562Z,101281.84
2018-06-30T19:32:35.990Z,101293.31
2018-06-30T19:35:05.332Z,101284.11
2018-06-30T19:37:34.624Z,101285.88
2018-06-30T19:40:03.919Z,101288.54
2018-06-30T19:42:33.476Z,101288.99
2018-06-30T19:45:03.310Z,101297.38
2018-06-30T19:47:32.504Z,101297.42
2018-06-30T19:50:02.204Z,101299.64
2018-06-30T19:52:31.439Z,101297.50
2018-06-30T19:55:00.840Z,101303.67
2018-06-30T19:57:30.087Z,101302.81
2018-06-30T19:59:59.494Z,101315.60
2018-06-30T20:02:31.698Z,101309.91
2018-06-30T20:05:02.735Z,101305.95
2018-06-30T20:07:38.871Z,101309.08
2018-06-30T20:10:08.635Z,101307.33
2018-06-30T20:12:38.270Z,101301.62
2018-06-30T20:15:07.831Z,101306.05
2018-06-30T20:17:38.517Z,101319.24
2018-06-30T20:20:10.520Z,101317.92
2018-06-30T20:22:41.041Z,101316.13
2018-06-30T20:25:10.651Z,101315.73
2018-06-30T20:27:42.952Z,101316.17
2018-06-30T20:30:14.018Z,101318.37
2018-06-30T20:32:43.843Z,101324.95
2018-06-30T20:35:14.848Z,101316.61
2018-06-30T20:37:44.335Z,101327.63
2018-06-30T20:40:15.302Z,101329.81
2018-06-30T20:42:45.758Z,101321.50
2018-06-30T20:45:17.096Z,101326.32
2018-06-30T20:47:47.535Z,101324.16
2018-06-30T20:50:17.224Z,101323.70
2018-06-30T20:52:46.473Z,101329.41
2018-06-30T20:55:18.170Z,101332.91
2018-06-30T20:57:48.885Z,101330.30
2018-06-30T21:00:20.827Z,101332.04
2018-06-30T21:02:50.638Z,101333.80
2018-06-30T21:05:21.009Z,101332.02
2018-06-30T21:07:51.698Z,101332.91
2018-06-30T21:10:23.368Z,101334.64
2018-06-30T21:12:53.685Z,101342.11
2018-06-30T21:15:23.941Z,101335.07
2018-06-30T21:17:56.218Z,101336.81
2018-06-30T21:20:26.433Z,101338.16
2018-06-30T21:22:57.627Z,101336.84
2018-06-30T21:25:27.377Z,101342.97
2018-06-30T21:27:57.667Z,101345.11
2018-06-30T21:30:27.725Z,101341.16
2018-06-30T21:32:56.997Z,101346.42
2018-06-30T21:35:26.203Z,101347.73
2018-06-30T21:37:55.666Z,101341.16
2018-06-30T21:40:26.930Z,101349.06
2018-06-30T21:42:57.990Z,101348.17
2018-06-30T21:45:29.330Z,101345.96
2018-06-30T21:47:58.714Z,101354.75
2018-06-30T21:50:29.353Z,101348.16
2018-06-30T21:53:00.472Z,101349.03
2018-06-30T21:55:32.298Z,101359.09
2018-06-30T21:58:03.562Z,101354.27
2018-06-30T22:00:49.739Z,101353.80
2018-06-30T22:03:26.837Z,101359.48
2018-06-30T22:05:58.539Z,101356.84
2018-06-30T22:08:30.362Z,101356.84
2018-06-30T22:11:02.959Z,101366.44
2018-06-30T22:13:32.050Z,101363.77
2018-06-30T22:16:03.948Z,101364.20
2018-06-30T22:18:34.617Z,101366.80
2018-06-30T22:21:06.797Z,101370.71
2018-06-30T22:23:39.073Z,101363.27
2018-06-30T22:26:08.275Z,101366.31
2018-06-30T22:28:40.422Z,101364.95
2018-06-30T22:31:09.574Z,101365.81
2018-06-30T22:33:38.773Z,101372.33
2018-06-30T22:36:08.083Z,101371.42
2018-06-30T22:38:39.106Z,101371.84
2018-06-30T22:41:10.396Z,101366.13
2018-06-30T22:43:39.885Z,101371.31
2018-06-30T22:46:10.416Z,101379.59
2018-06-30T22:48:41.650Z,101382.56
2018-06-30T22:51:13.053Z,101380.36
2018-06-30T22:53:45.421Z,101374.62
2018-06-30T22:56:14.592Z,101385.05
2018-06-30T22:58:46.130Z,101387.62
2018-06-30T23:01:16.631Z,101394.58
2018-06-30T23:03:48.317Z,101394.53
2018-06-30T23:06:18.337Z,101392.30
2018-06-30T23:08:53.635Z,101389.63
2018-06-30T23:11:25.854Z,101384.33
2018-06-30T23:13:55.772Z,101391.27
2018-06-30T23:16:25.953Z,101396.84
2018-06-30T23:18:55.925Z,101392.88
2018-06-30T23:21:26.773Z,101385.41
2018-06-30T23:23:57.757Z,101394.50
2018-06-30T23:26:28.852Z,101392.23
2018-06-30T23:28:58.003Z,101397.88
2018-06-30T23:31:27.266Z,101391.25
2018-06-30T23:33:57.938Z,101393.41
2018-06-30T23:36:28.385Z,101402.52
2018-06-30T23:39:00.455Z,101407.27
2018-06-30T23:41:30.572Z,101404.61
2018-06-30T23:44:00.302Z,101397.02
2018-06-30T23:46:32.956Z,101391.72
2018-06-30T23:49:02.412Z,101400.90
2018-06-30T23:51:32.486Z,101397.38
2018-06-30T23:54:03.440Z,101393.87
2018-06-30T23:56:33.320Z,101397.33
2018-06-30T23:59:03.999Z,101389.01
